sensor_id;sensor_type;location;lat;lon;timestamp;temperature;humidity
24560;DHT22;12727;49.934;8.656;2023-07-30T00:01:25;19.90;99.90
24560;DHT22;12727;49.934;8.656;2023-07-30T00:03:51;19.90;99.90
24560;DHT22;12727;49.934;8.656;2023-07-30T00:06:16;19.90;99.90
24560;DHT22;12727;49.934;8.656;2023-07-30T00:08:42;19.80;99.90
24560;DHT22;12727;49.934;8.656;2023-07-30T00:11:08;19.80;99.90
24560;DHT22;12727;49.934;8.656;2023-07-30T00:13:33;19.70;99.90
24560;DHT22;12727;49.934;8.656;2023-07-30T00:15:59;19.70;99.90
24560;DHT22;12727;49.934;8.656;2023-07-30T00:18:24;19.60;99.90
24560;DHT22;12727;49.934;8.656;2023-07-30T00:20:50;19.60;99.90
24560;DHT22;12727;49.934;8.656;2023-07-30T00:23:15;19.60;99.90
24560;DHT22;12727;49.934;8.656;2023-07-30T00:25:41;19.50;99.90
24560;DHT22;12727;49.934;8.656;2023-07-30T00:28:06;19.60;99.90
24560;DHT22;12727;49.934;8.656;2023-07-30T00:30:32;19.60;99.90
24560;DHT22;12727;49.934;8.656;2023-07-30T00:32:58;19.60;99.90
24560;DHT22;12727;49.934;8.656;2023-07-30T00:35:23;19.60;99.90
24560;DHT22;12727;49.934;8.656;2023-07-30T00:37:49;19.60;99.90
24560;DHT22;12727;49.934;8.656;2023-07-30T00:40:14;19.60;99.90
24560;DHT22;12727;49.934;8.656;2023-07-30T00:42:40;19.60;99.90
24560;DHT22;12727;49.934;8.656;2023-07-30T00:45:06;19.60;99.90
24560;DHT22;12727;49.934;8.656;2023-07-30T00:47:32;19.60;99.90
24560;DHT22;12727;49.934;8.656;2023-07-30T00:49:57;19.70;99.90
24560;DHT22;12727;49.934;8.656;2023-07-30T00:52:24;19.70;99.90
24560;DHT22;12727;49.934;8.656;2023-07-30T00:54:51;19.70;99.90
24560;DHT22;12727;49.934;8.656;2023-07-30T00:57:18;19.70;99.90
24560;DHT22;12727;49.934;8.656;2023-07-30T00:59:45;19.70;99.90
24560;DHT22;12727;49.934;8.656;2023-07-30T01:02:12;19.70;99.90
24560;DHT22;12727;49.934;8.656;2023-07-30T01:04:37;19.60;99.90
24560;DHT22;12727;49.934;8.656;2023-07-30T01:07:05;19.60;99.90
24560;DHT22;12727;49.934;8.656;2023-07-30T01:09:31;19.60;99.90
24560;DHT22;12727;49.934;8.656;2023-07-30T01:11:58;19.60;99.90
24560;DHT22;12727;49.934;8.656;2023-07-30T01:14:25;19.50;99.90
24560;DHT22;12727;49.934;8.656;2023-07-30T01:16:54;19.60;99.90
24560;DHT22;12727;49.934;8.656;2023-07-30T01:19:19;19.60;99.90
24560;DHT22;12727;49.934;8.656;2023-07-30T01:21:45;19.50;99.90
24560;DHT22;12727;49.934;8.656;2023-07-30T01:24:11;19.50;99.90
24560;DHT22;12727;49.934;8.656;2023-07-30T01:26:59;19.50;99.90
24560;DHT22;12727;49.934;8.656;2023-07-30T01:29:47;19.50;99.90
24560;DHT22;12727;49.934;8.656;2023-07-30T01:32:14;19.50;99.90
24560;DHT22;12727;49.934;8.656;2023-07-30T01:34:41;19.50;99.90
24560;DHT22;12727;49.934;8.656;2023-07-30T01:37:10;19.50;99.90
24560;DHT22;12727;49.934;8.656;2023-07-30T01:39:37;19.40;99.90
24560;DHT22;12727;49.934;8.656;2023-07-30T01:42:04;19.50;99.90
24560;DHT22;12727;49.934;8.656;2023-07-30T01:44:30;19.40;99.90
24560;DHT22;12727;49.934;8.656;2023-07-30T01:46:55;19.40;99.90
24560;DHT22;12727;49.934;8.656;2023-07-30T01:49:21;19.30;99.90
24560;DHT22;12727;49.934;8.656;2023-07-30T01:51:46;19.20;99.90
24560;DHT22;12727;49.934;8.656;2023-07-30T01:54:12;19.10;99.90
24560;DHT22;12727;49.934;8.656;2023-07-30T01:56:37;19.10;99.90
24560;DHT22;12727;49.934;8.656;2023-07-30T01:59:03;19.10;99.90
24560;DHT22;12727;49.934;8.656;2023-07-30T02:01:28;19.10;99.90
24560;DHT22;12727;49.934;8.656;2023-07-30T02:03:54;19.00;99.90
24560;DHT22;12727;49.934;8.656;2023-07-30T02:06:20;19.10;99.90
24560;DHT22;12727;49.934;8.656;2023-07-30T02:08:45;19.00;99.90
24560;DHT22;12727;49.934;8.656;2023-07-30T02:11:11;19.10;99.90
24560;DHT22;12727;49.934;8.656;2023-07-30T02:13:36;19.10;99.90
24560;DHT22;12727;49.934;8.656;2023-07-30T02:16:02;19.10;99.90
24560;DHT22;12727;49.934;8.656;2023-07-30T02:18:27;19.10;99.90
24560;DHT22;12727;49.934;8.656;2023-07-30T02:20:53;19.00;99.90
24560;DHT22;12727;49.934;8.656;2023-07-30T02:23:18;19.00;99.90
24560;DHT22;12727;49.934;8.656;2023-07-30T02:25:44;18.90;99.90
24560;DHT22;12727;49.934;8.656;2023-07-30T02:28:10;18.90;99.90
24560;DHT22;12727;49.934;8.656;2023-07-30T02:30:36;18.90;99.90
24560;DHT22;12727;49.934;8.656;2023-07-30T02:33:01;18.90;99.90
24560;DHT22;12727;49.934;8.656;2023-07-30T02:35:27;18.80;99.90
24560;DHT22;12727;49.934;8.656;2023-07-30T02:37:53;18.80;99.90
24560;DHT22;12727;49.934;8.656;2023-07-30T02:40:18;18.80;99.90
24560;DHT22;12727;49.934;8.656;2023-07-30T02:42:44;18.80;99.90
24560;DHT22;12727;49.934;8.656;2023-07-30T02:45:10;18.80;99.90
24560;DHT22;12727;49.934;8.656;2023-07-30T02:47:35;18.80;99.90
24560;DHT22;12727;49.934;8.656;2023-07-30T02:50:02;18.80;99.90
24560;DHT22;12727;49.934;8.656;2023-07-30T02:52:28;18.70;99.90
24560;DHT22;12727;49.934;8.656;2023-07-30T02:54:54;18.70;99.90
24560;DHT22;12727;49.934;8.656;2023-07-30T02:57:19;18.70;99.90
24560;DHT22;12727;49.934;8.656;2023-07-30T02:59:45;18.70;99.90
24560;DHT22;12727;49.934;8.656;2023-07-30T03:02:10;18.70;99.90
24560;DHT22;12727;49.934;8.656;2023-07-30T03:04:36;18.80;99.90
24560;DHT22;12727;49.934;8.656;2023-07-30T03:07:02;18.70;99.90
24560;DHT22;12727;49.934;8.656;2023-07-30T03:09:27;18.70;99.90
24560;DHT22;12727;49.934;8.656;2023-07-30T03:11:53;18.70;99.90
24560;DHT22;12727;49.934;8.656;2023-07-30T03:14:19;18.60;99.90
24560;DHT22;12727;49.934;8.656;2023-07-30T03:16:46;18.60;99.90
24560;DHT22;12727;49.934;8.656;2023-07-30T03:19:12;18.60;99.90
24560;DHT22;12727;49.934;8.656;2023-07-30T03:21:38;18.50;99.90
24560;DHT22;12727;49.934;8.656;2023-07-30T03:24:03;18.50;99.90
24560;DHT22;12727;49.934;8.656;2023-07-30T03:26:29;18.50;99.90
24560;DHT22;12727;49.934;8.656;2023-07-30T03:28:54;18.50;99.90
24560;DHT22;12727;49.934;8.656;2023-07-30T03:31:20;18.50;99.90
24560;DHT22;12727;49.934;8.656;2023-07-30T03:33:46;18.50;99.90
24560;DHT22;12727;49.934;8.656;2023-07-30T03:36:12;18.40;99.90
24560;DHT22;12727;49.934;8.656;2023-07-30T03:38:41;18.40;99.90
24560;DHT22;12727;49.934;8.656;2023-07-30T03:41:06;18.40;99.90
24560;DHT22;12727;49.934;8.656;2023-07-30T03:43:33;18.40;99.90
24560;DHT22;12727;49.934;8.656;2023-07-30T03:45:58;18.40;99.90
24560;DHT22;12727;49.934;8.656;2023-07-30T03:48:24;18.30;99.90
24560;DHT22;12727;49.934;8.656;2023-07-30T03:50:49;18.30;99.90
24560;DHT22;12727;49.934;8.656;2023-07-30T03:53:15;18.30;99.90
24560;DHT22;12727;49.934;8.656;2023-07-30T03:55:41;18.30;99.90
24560;DHT22;12727;49.934;8.656;2023-07-30T03:58:07;18.20;99.90
24560;DHT22;12727;49.934;8.656;2023-07-30T04:00:33;18.10;99.90
24560;DHT22;12727;49.934;8.656;2023-07-30T04:02:58;18.10;99.90
24560;DHT22;12727;49.934;8.656;2023-07-30T04:05:24;18.10;99.90
24560;DHT22;12727;49.934;8.656;2023-07-30T04:07:50;18.10;99.90
24560;DHT22;12727;49.934;8.656;2023-07-30T04:10:15;18.10;99.90
24560;DHT22;12727;49.934;8.656;2023-07-30T04:12:41;18.10;99.90
24560;DHT22;12727;49.934;8.656;2023-07-30T04:15:07;18.20;99.90
24560;DHT22;12727;49.934;8.656;2023-07-30T04:17:35;18.20;99.90
24560;DHT22;12727;49.934;8.656;2023-07-30T04:20:01;18.20;99.90
24560;DHT22;12727;49.934;8.656;2023-07-30T04:22:27;18.20;99.90
24560;DHT22;12727;49.934;8.656;2023-07-30T04:24:53;18.20;99.90
24560;DHT22;12727;49.934;8.656;2023-07-30T04:27:18;18.20;99.90
24560;DHT22;12727;49.934;8.656;2023-07-30T04:29:44;18.20;99.90
24560;DHT22;12727;49.934;8.656;2023-07-30T04:32:10;18.20;99.90
24560;DHT22;12727;49.934;8.656;2023-07-30T04:34:35;18.30;99.90
24560;DHT22;12727;49.934;8.656;2023-07-30T04:37:01;18.30;99.90
24560;DHT22;12727;49.934;8.656;2023-07-30T04:39:28;18.30;99.90
24560;DHT22;12727;49.934;8.656;2023-07-30T04:41:53;18.40;99.90
24560;DHT22;12727;49.934;8.656;2023-07-30T04:44:19;18.40;99.90
24560;DHT22;12727;49.934;8.656;2023-07-30T04:46:44;18.40;99.90
24560;DHT22;12727;49.934;8.656;2023-07-30T04:49:10;18.50;99.90
24560;DHT22;12727;49.934;8.656;2023-07-30T04:51:35;18.50;99.90
24560;DHT22;12727;49.934;8.656;2023-07-30T04:54:01;18.50;99.90
24560;DHT22;12727;49.934;8.656;2023-07-30T04:56:27;18.50;99.90
24560;DHT22;12727;49.934;8.656;2023-07-30T04:58:53;18.50;99.90
24560;DHT22;12727;49.934;8.656;2023-07-30T05:01:19;18.50;99.90
24560;DHT22;12727;49.934;8.656;2023-07-30T05:03:44;18.60;99.90
24560;DHT22;12727;49.934;8.656;2023-07-30T05:06:10;18.60;99.90
24560;DHT22;12727;49.934;8.656;2023-07-30T05:08:35;18.60;99.90
24560;DHT22;12727;49.934;8.656;2023-07-30T05:11:01;18.60;99.90
24560;DHT22;12727;49.934;8.656;2023-07-30T05:13:26;18.70;99.90
24560;DHT22;12727;49.934;8.656;2023-07-30T05:15:52;18.70;99.90
24560;DHT22;12727;49.934;8.656;2023-07-30T05:18:17;18.60;99.90
24560;DHT22;12727;49.934;8.656;2023-07-30T05:20:46;18.60;99.90
24560;DHT22;12727;49.934;8.656;2023-07-30T05:23:11;18.60;99.90
24560;DHT22;12727;49.934;8.656;2023-07-30T05:25:37;18.70;99.90
24560;DHT22;12727;49.934;8.656;2023-07-30T05:28:02;18.80;99.90
24560;DHT22;12727;49.934;8.656;2023-07-30T05:30:28;18.80;99.90
24560;DHT22;12727;49.934;8.656;2023-07-30T05:32:53;18.80;99.90
24560;DHT22;12727;49.934;8.656;2023-07-30T05:35:19;18.90;99.90
24560;DHT22;12727;49.934;8.656;2023-07-30T05:37:45;19.00;99.90
24560;DHT22;12727;49.934;8.656;2023-07-30T05:40:10;18.90;99.90
24560;DHT22;12727;49.934;8.656;2023-07-30T05:42:36;18.90;99.90
24560;DHT22;12727;49.934;8.656;2023-07-30T05:45:01;18.90;99.90
24560;DHT22;12727;49.934;8.656;2023-07-30T05:47:27;18.90;99.90
24560;DHT22;12727;49.934;8.656;2023-07-30T05:49:53;19.00;99.90
24560;DHT22;12727;49.934;8.656;2023-07-30T05:52:18;19.00;99.90
24560;DHT22;12727;49.934;8.656;2023-07-30T05:54:44;19.10;99.90
24560;DHT22;12727;49.934;8.656;2023-07-30T05:57:09;19.20;99.90
24560;DHT22;12727;49.934;8.656;2023-07-30T05:59:35;19.30;99.90
24560;DHT22;12727;49.934;8.656;2023-07-30T06:02:02;19.40;99.90
24560;DHT22;12727;49.934;8.656;2023-07-30T06:04:29;19.60;99.90
24560;DHT22;12727;49.934;8.656;2023-07-30T06:06:54;19.70;99.90
24560;DHT22;12727;49.934;8.656;2023-07-30T06:09:20;19.90;99.90
24560;DHT22;12727;49.934;8.656;2023-07-30T06:11:45;20.00;99.90
24560;DHT22;12727;49.934;8.656;2023-07-30T06:14:11;20.10;99.90
24560;DHT22;12727;49.934;8.656;2023-07-30T06:16:37;20.20;99.90
24560;DHT22;12727;49.934;8.656;2023-07-30T06:19:02;20.40;99.90
24560;DHT22;12727;49.934;8.656;2023-07-30T06:21:28;20.60;99.90
24560;DHT22;12727;49.934;8.656;2023-07-30T06:23:53;20.80;99.90
24560;DHT22;12727;49.934;8.656;2023-07-30T06:26:19;21.00;99.90
24560;DHT22;12727;49.934;8.656;2023-07-30T06:28:44;21.40;99.90
24560;DHT22;12727;49.934;8.656;2023-07-30T06:31:10;21.60;99.90
24560;DHT22;12727;49.934;8.656;2023-07-30T06:33:36;21.70;99.90
24560;DHT22;12727;49.934;8.656;2023-07-30T06:36:03;21.80;99.90
24560;DHT22;12727;49.934;8.656;2023-07-30T06:38:29;21.80;99.90
24560;DHT22;12727;49.934;8.656;2023-07-30T06:40:54;21.80;99.90
24560;DHT22;12727;49.934;8.656;2023-07-30T06:43:23;21.70;99.90
24560;DHT22;12727;49.934;8.656;2023-07-30T06:45:48;21.80;99.90
24560;DHT22;12727;49.934;8.656;2023-07-30T06:48:14;21.70;99.90
24560;DHT22;12727;49.934;8.656;2023-07-30T06:50:41;21.50;99.90
24560;DHT22;12727;49.934;8.656;2023-07-30T06:53:06;21.50;99.90
24560;DHT22;12727;49.934;8.656;2023-07-30T06:55:32;21.40;99.90
24560;DHT22;12727;49.934;8.656;2023-07-30T06:57:58;21.30;99.90
24560;DHT22;12727;49.934;8.656;2023-07-30T07:00:23;21.50;99.90
24560;DHT22;12727;49.934;8.656;2023-07-30T07:02:49;21.70;99.90
24560;DHT22;12727;49.934;8.656;2023-07-30T07:05:15;21.90;99.90
24560;DHT22;12727;49.934;8.656;2023-07-30T07:07:40;22.00;99.90
24560;DHT22;12727;49.934;8.656;2023-07-30T07:10:06;22.20;99.90
24560;DHT22;12727;49.934;8.656;2023-07-30T07:12:32;22.20;99.90
24560;DHT22;12727;49.934;8.656;2023-07-30T07:14:57;22.10;99.90
24560;DHT22;12727;49.934;8.656;2023-07-30T07:17:24;21.90;99.90
24560;DHT22;12727;49.934;8.656;2023-07-30T07:19:49;21.70;99.90
24560;DHT22;12727;49.934;8.656;2023-07-30T07:22:15;21.70;99.90
24560;DHT22;12727;49.934;8.656;2023-07-30T07:24:43;21.70;99.90
24560;DHT22;12727;49.934;8.656;2023-07-30T07:27:09;21.60;99.90
24560;DHT22;12727;49.934;8.656;2023-07-30T07:29:35;21.40;99.90
24560;DHT22;12727;49.934;8.656;2023-07-30T07:32:00;21.20;99.90
24560;DHT22;12727;49.934;8.656;2023-07-30T07:34:26;20.90;99.90
24560;DHT22;12727;49.934;8.656;2023-07-30T07:36:52;20.80;99.90
24560;DHT22;12727;49.934;8.656;2023-07-30T07:39:17;20.60;99.90
24560;DHT22;12727;49.934;8.656;2023-07-30T07:41:43;20.30;99.90
24560;DHT22;12727;49.934;8.656;2023-07-30T07:44:09;20.20;99.90
24560;DHT22;12727;49.934;8.656;2023-07-30T07:46:35;20.10;99.90
24560;DHT22;12727;49.934;8.656;2023-07-30T07:49:00;20.00;99.90
24560;DHT22;12727;49.934;8.656;2023-07-30T07:51:26;19.90;99.90
24560;DHT22;12727;49.934;8.656;2023-07-30T07:53:51;19.90;99.90
24560;DHT22;12727;49.934;8.656;2023-07-30T07:56:17;19.90;99.90
24560;DHT22;12727;49.934;8.656;2023-07-30T07:58:43;19.80;99.90
24560;DHT22;12727;49.934;8.656;2023-07-30T08:01:09;19.80;99.90
24560;DHT22;12727;49.934;8.656;2023-07-30T08:03:34;19.80;99.90
24560;DHT22;12727;49.934;8.656;2023-07-30T08:06:00;19.80;99.90
24560;DHT22;12727;49.934;8.656;2023-07-30T08:08:26;19.90;99.90
24560;DHT22;12727;49.934;8.656;2023-07-30T08:10:52;20.00;99.90
24560;DHT22;12727;49.934;8.656;2023-07-30T08:13:18;20.10;99.90
24560;DHT22;12727;49.934;8.656;2023-07-30T08:15:44;20.10;99.90
24560;DHT22;12727;49.934;8.656;2023-07-30T08:18:12;20.20;99.90
24560;DHT22;12727;49.934;8.656;2023-07-30T08:20:38;20.40;99.90
24560;DHT22;12727;49.934;8.656;2023-07-30T08:23:03;20.80;99.90
24560;DHT22;12727;49.934;8.656;2023-07-30T08:25:29;21.10;99.90
24560;DHT22;12727;49.934;8.656;2023-07-30T08:27:55;21.40;99.90
24560;DHT22;12727;49.934;8.656;2023-07-30T08:30:20;21.60;99.90
24560;DHT22;12727;49.934;8.656;2023-07-30T08:32:46;21.90;99.90
24560;DHT22;12727;49.934;8.656;2023-07-30T08:35:12;22.30;99.90
24560;DHT22;12727;49.934;8.656;2023-07-30T08:37:38;22.60;99.90
24560;DHT22;12727;49.934;8.656;2023-07-30T08:40:03;22.60;99.90
24560;DHT22;12727;49.934;8.656;2023-07-30T08:42:29;22.70;99.90
24560;DHT22;12727;49.934;8.656;2023-07-30T08:44:55;22.70;99.90
24560;DHT22;12727;49.934;8.656;2023-07-30T08:47:21;22.80;99.90
24560;DHT22;12727;49.934;8.656;2023-07-30T08:49:46;22.90;99.90
24560;DHT22;12727;49.934;8.656;2023-07-30T08:52:12;22.90;99.90
24560;DHT22;12727;49.934;8.656;2023-07-30T08:54:39;22.80;99.90
24560;DHT22;12727;49.934;8.656;2023-07-30T08:57:06;23.20;99.90
24560;DHT22;12727;49.934;8.656;2023-07-30T08:59:42;23.70;99.90
24560;DHT22;12727;49.934;8.656;2023-07-30T09:02:20;23.70;99.90
24560;DHT22;12727;49.934;8.656;2023-07-30T09:04:50;23.50;99.90
24560;DHT22;12727;49.934;8.656;2023-07-30T09:07:16;23.50;99.90
24560;DHT22;12727;49.934;8.656;2023-07-30T09:09:42;23.40;99.90
24560;DHT22;12727;49.934;8.656;2023-07-30T09:12:17;23.50;99.90
24560;DHT22;12727;49.934;8.656;2023-07-30T09:14:43;23.10;99.90
24560;DHT22;12727;49.934;8.656;2023-07-30T09:17:20;23.30;99.90
24560;DHT22;12727;49.934;8.656;2023-07-30T09:19:46;23.30;99.90
24560;DHT22;12727;49.934;8.656;2023-07-30T09:22:12;23.10;99.90
24560;DHT22;12727;49.934;8.656;2023-07-30T09:24:43;22.90;99.90
24560;DHT22;12727;49.934;8.656;2023-07-30T09:27:09;22.90;99.90
24560;DHT22;12727;49.934;8.656;2023-07-30T09:29:34;23.10;99.90
24560;DHT22;12727;49.934;8.656;2023-07-30T09:32:00;23.10;99.90
24560;DHT22;12727;49.934;8.656;2023-07-30T09:34:26;23.20;99.90
24560;DHT22;12727;49.934;8.656;2023-07-30T09:36:54;23.00;99.90
24560;DHT22;12727;49.934;8.656;2023-07-30T09:39:24;22.60;99.80
24560;DHT22;12727;49.934;8.656;2023-07-30T09:41:51;22.20;99.90
24560;DHT22;12727;49.934;8.656;2023-07-30T09:44:21;21.40;99.90
24560;DHT22;12727;49.934;8.656;2023-07-30T09:46:48;20.70;99.90
24560;DHT22;12727;49.934;8.656;2023-07-30T09:49:15;20.40;99.90
24560;DHT22;12727;49.934;8.656;2023-07-30T09:51:40;19.90;99.90
24560;DHT22;12727;49.934;8.656;2023-07-30T09:54:07;19.60;99.90
24560;DHT22;12727;49.934;8.656;2023-07-30T09:56:35;19.50;99.90
24560;DHT22;12727;49.934;8.656;2023-07-30T09:59:01;19.40;99.90
24560;DHT22;12727;49.934;8.656;2023-07-30T10:01:28;19.40;99.90
24560;DHT22;12727;49.934;8.656;2023-07-30T10:03:57;19.40;99.90
24560;DHT22;12727;49.934;8.656;2023-07-30T10:06:25;19.40;99.90
24560;DHT22;12727;49.934;8.656;2023-07-30T10:08:54;19.40;99.90
24560;DHT22;12727;49.934;8.656;2023-07-30T10:11:22;19.40;99.90
24560;DHT22;12727;49.934;8.656;2023-07-30T10:13:49;19.50;99.90
24560;DHT22;12727;49.934;8.656;2023-07-30T10:16:15;19.60;99.90
24560;DHT22;12727;49.934;8.656;2023-07-30T10:18:42;19.70;99.90
24560;DHT22;12727;49.934;8.656;2023-07-30T10:21:09;19.70;99.90
24560;DHT22;12727;49.934;8.656;2023-07-30T10:23:35;19.80;99.90
24560;DHT22;12727;49.934;8.656;2023-07-30T10:26:09;19.90;99.90
24560;DHT22;12727;49.934;8.656;2023-07-30T10:28:38;20.10;99.90
24560;DHT22;12727;49.934;8.656;2023-07-30T10:31:09;20.10;99.90
24560;DHT22;12727;49.934;8.656;2023-07-30T10:33:53;20.30;99.90
24560;DHT22;12727;49.934;8.656;2023-07-30T10:38:56;20.60;99.90
24560;DHT22;12727;49.934;8.656;2023-07-30T10:41:22;21.10;99.90
24560;DHT22;12727;49.934;8.656;2023-07-30T10:43:49;22.10;99.90
24560;DHT22;12727;49.934;8.656;2023-07-30T10:46:17;23.30;99.20
24560;DHT22;12727;49.934;8.656;2023-07-30T10:48:44;23.90;96.50
24560;DHT22;12727;49.934;8.656;2023-07-30T10:51:15;24.20;93.10
24560;DHT22;12727;49.934;8.656;2023-07-30T10:53:45;23.10;93.70
24560;DHT22;12727;49.934;8.656;2023-07-30T10:56:12;22.60;93.80
24560;DHT22;12727;49.934;8.656;2023-07-30T10:58:38;22.70;94.20
24560;DHT22;12727;49.934;8.656;2023-07-30T11:01:08;22.60;94.50
24560;DHT22;12727;49.934;8.656;2023-07-30T11:03:34;22.40;93.30
24560;DHT22;12727;49.934;8.656;2023-07-30T11:06:02;22.40;91.00
24560;DHT22;12727;49.934;8.656;2023-07-30T11:08:41;23.20;90.20
24560;DHT22;12727;49.934;8.656;2023-07-30T11:11:08;24.00;84.80
24560;DHT22;12727;49.934;8.656;2023-07-30T11:13:42;24.40;83.90
24560;DHT22;12727;49.934;8.656;2023-07-30T11:16:08;24.80;81.30
24560;DHT22;12727;49.934;8.656;2023-07-30T11:18:35;24.70;72.70
24560;DHT22;12727;49.934;8.656;2023-07-30T11:21:06;24.60;75.80
24560;DHT22;12727;49.934;8.656;2023-07-30T11:23:32;24.80;72.50
24560;DHT22;12727;49.934;8.656;2023-07-30T11:26:00;24.90;73.10
24560;DHT22;12727;49.934;8.656;2023-07-30T11:28:37;25.10;73.80
24560;DHT22;12727;49.934;8.656;2023-07-30T11:33:41;24.60;73.20
24560;DHT22;12727;49.934;8.656;2023-07-30T11:36:10;24.20;74.60
24560;DHT22;12727;49.934;8.656;2023-07-30T11:38:38;24.40;75.70
24560;DHT22;12727;49.934;8.656;2023-07-30T11:41:04;24.00;75.60
24560;DHT22;12727;49.934;8.656;2023-07-30T11:43:31;23.60;75.40
24560;DHT22;12727;49.934;8.656;2023-07-30T11:46:10;23.20;75.90
24560;DHT22;12727;49.934;8.656;2023-07-30T11:48:36;22.80;76.40
24560;DHT22;12727;49.934;8.656;2023-07-30T11:51:02;22.50;77.10
24560;DHT22;12727;49.934;8.656;2023-07-30T11:53:47;22.30;77.80
24560;DHT22;12727;49.934;8.656;2023-07-30T11:58:50;21.90;78.30
24560;DHT22;12727;49.934;8.656;2023-07-30T12:01:17;21.70;78.20
24560;DHT22;12727;49.934;8.656;2023-07-30T12:03:43;21.60;78.50
24560;DHT22;12727;49.934;8.656;2023-07-30T12:06:12;21.60;79.00
24560;DHT22;12727;49.934;8.656;2023-07-30T12:08:37;21.60;78.60
24560;DHT22;12727;49.934;8.656;2023-07-30T12:11:04;21.70;78.20
24560;DHT22;12727;49.934;8.656;2023-07-30T12:13:30;21.80;76.90
24560;DHT22;12727;49.934;8.656;2023-07-30T12:15:57;22.00;76.30
24560;DHT22;12727;49.934;8.656;2023-07-30T12:18:25;22.20;75.50
24560;DHT22;12727;49.934;8.656;2023-07-30T12:20:51;22.20;74.80
24560;DHT22;12727;49.934;8.656;2023-07-30T12:23:17;22.30;74.90
24560;DHT22;12727;49.934;8.656;2023-07-30T12:25:43;22.10;73.90
24560;DHT22;12727;49.934;8.656;2023-07-30T12:28:09;21.90;74.00
24560;DHT22;12727;49.934;8.656;2023-07-30T12:30:34;21.60;74.10
24560;DHT22;12727;49.934;8.656;2023-07-30T12:33:02;21.60;75.20
24560;DHT22;12727;49.934;8.656;2023-07-30T12:35:28;21.80;75.60
24560;DHT22;12727;49.934;8.656;2023-07-30T12:37:53;21.80;74.90
24560;DHT22;12727;49.934;8.656;2023-07-30T12:40:19;22.00;74.80
24560;DHT22;12727;49.934;8.656;2023-07-30T12:42:45;22.30;75.00
24560;DHT22;12727;49.934;8.656;2023-07-30T12:45:10;22.50;72.50
24560;DHT22;12727;49.934;8.656;2023-07-30T12:47:36;22.70;73.90
24560;DHT22;12727;49.934;8.656;2023-07-30T12:50:03;23.00;72.70
24560;DHT22;12727;49.934;8.656;2023-07-30T12:52:29;23.00;69.00
24560;DHT22;12727;49.934;8.656;2023-07-30T12:54:54;22.80;67.50
24560;DHT22;12727;49.934;8.656;2023-07-30T12:57:20;22.80;68.00
24560;DHT22;12727;49.934;8.656;2023-07-30T12:59:45;22.80;65.60
24560;DHT22;12727;49.934;8.656;2023-07-30T13:02:11;22.60;66.20
24560;DHT22;12727;49.934;8.656;2023-07-30T13:04:36;22.80;67.80
24560;DHT22;12727;49.934;8.656;2023-07-30T13:07:02;22.90;65.30
24560;DHT22;12727;49.934;8.656;2023-07-30T13:09:28;22.80;64.10
24560;DHT22;12727;49.934;8.656;2023-07-30T13:11:54;22.70;63.30
24560;DHT22;12727;49.934;8.656;2023-07-30T13:14:19;22.60;64.40
24560;DHT22;12727;49.934;8.656;2023-07-30T13:16:45;22.60;65.30
24560;DHT22;12727;49.934;8.656;2023-07-30T13:19:11;22.70;64.00
24560;DHT22;12727;49.934;8.656;2023-07-30T13:21:37;22.70;65.80
24560;DHT22;12727;49.934;8.656;2023-07-30T13:24:03;23.00;64.70
24560;DHT22;12727;49.934;8.656;2023-07-30T13:26:28;22.70;64.60
24560;DHT22;12727;49.934;8.656;2023-07-30T13:28:54;22.70;65.40
24560;DHT22;12727;49.934;8.656;2023-07-30T13:31:19;22.70;65.10
24560;DHT22;12727;49.934;8.656;2023-07-30T13:33:45;22.80;65.40
24560;DHT22;12727;49.934;8.656;2023-07-30T13:36:12;22.80;64.80
24560;DHT22;12727;49.934;8.656;2023-07-30T13:38:38;22.70;65.70
24560;DHT22;12727;49.934;8.656;2023-07-30T13:41:05;22.70;66.30
24560;DHT22;12727;49.934;8.656;2023-07-30T13:43:31;22.80;66.10
24560;DHT22;12727;49.934;8.656;2023-07-30T13:45:57;22.80;65.40
24560;DHT22;12727;49.934;8.656;2023-07-30T13:48:24;22.90;64.60
24560;DHT22;12727;49.934;8.656;2023-07-30T13:50:50;22.80;64.80
24560;DHT22;12727;49.934;8.656;2023-07-30T13:53:15;22.60;64.80
24560;DHT22;12727;49.934;8.656;2023-07-30T13:55:41;22.60;64.60
24560;DHT22;12727;49.934;8.656;2023-07-30T13:58:07;22.50;63.60
24560;DHT22;12727;49.934;8.656;2023-07-30T14:00:33;22.40;64.00
24560;DHT22;12727;49.934;8.656;2023-07-30T14:02:59;22.30;63.90
24560;DHT22;12727;49.934;8.656;2023-07-30T14:05:24;22.10;64.40
24560;DHT22;12727;49.934;8.656;2023-07-30T14:07:50;22.20;65.10
24560;DHT22;12727;49.934;8.656;2023-07-30T14:10:19;22.40;65.10
24560;DHT22;12727;49.934;8.656;2023-07-30T14:12:44;22.60;65.50
24560;DHT22;12727;49.934;8.656;2023-07-30T14:15:10;22.70;64.80
24560;DHT22;12727;49.934;8.656;2023-07-30T14:17:36;22.60;65.60
24560;DHT22;12727;49.934;8.656;2023-07-30T14:20:01;22.70;64.90
24560;DHT22;12727;49.934;8.656;2023-07-30T14:22:27;22.60;64.40
24560;DHT22;12727;49.934;8.656;2023-07-30T14:24:53;22.60;65.30
24560;DHT22;12727;49.934;8.656;2023-07-30T14:27:19;22.70;65.70
24560;DHT22;12727;49.934;8.656;2023-07-30T14:29:44;22.80;65.60
24560;DHT22;12727;49.934;8.656;2023-07-30T14:32:10;23.00;65.90
24560;DHT22;12727;49.934;8.656;2023-07-30T14:34:36;23.40;64.70
24560;DHT22;12727;49.934;8.656;2023-07-30T14:37:01;23.50;63.30
24560;DHT22;12727;49.934;8.656;2023-07-30T14:39:27;23.30;63.00
24560;DHT22;12727;49.934;8.656;2023-07-30T14:41:52;23.00;64.20
24560;DHT22;12727;49.934;8.656;2023-07-30T14:44:18;23.00;64.80
24560;DHT22;12727;49.934;8.656;2023-07-30T14:46:44;22.80;64.60
24560;DHT22;12727;49.934;8.656;2023-07-30T14:49:10;22.80;65.30
24560;DHT22;12727;49.934;8.656;2023-07-30T14:51:35;22.90;65.10
24560;DHT22;12727;49.934;8.656;2023-07-30T14:54:01;23.00;65.40
24560;DHT22;12727;49.934;8.656;2023-07-30T14:56:28;23.10;64.00
24560;DHT22;12727;49.934;8.656;2023-07-30T14:58:54;22.90;63.50
24560;DHT22;12727;49.934;8.656;2023-07-30T15:01:21;22.80;62.80
24560;DHT22;12727;49.934;8.656;2023-07-30T15:03:47;22.70;64.60
24560;DHT22;12727;49.934;8.656;2023-07-30T15:06:13;22.70;64.70
24560;DHT22;12727;49.934;8.656;2023-07-30T15:08:38;22.70;64.70
24560;DHT22;12727;49.934;8.656;2023-07-30T15:11:04;22.90;62.50
24560;DHT22;12727;49.934;8.656;2023-07-30T15:13:29;22.80;61.20
24560;DHT22;12727;49.934;8.656;2023-07-30T15:15:55;22.60;61.10
24560;DHT22;12727;49.934;8.656;2023-07-30T15:18:20;22.50;62.00
24560;DHT22;12727;49.934;8.656;2023-07-30T15:20:46;22.40;62.80
24560;DHT22;12727;49.934;8.656;2023-07-30T15:23:12;22.40;63.70
24560;DHT22;12727;49.934;8.656;2023-07-30T15:25:38;22.50;63.30
24560;DHT22;12727;49.934;8.656;2023-07-30T15:28:04;22.50;62.70
24560;DHT22;12727;49.934;8.656;2023-07-30T15:30:30;22.60;63.10
24560;DHT22;12727;49.934;8.656;2023-07-30T15:32:55;22.80;63.20